createdAt,value
2019-04-03T14:20:06.233Z,15.48
2019-04-03T20:13:13.626Z,26.05
2019-04-03T20:15:45.435Z,22.22
2019-04-03T20:18:16.889Z,21.50
2019-04-03T20:20:48.231Z,22.58
2019-04-03T20:23:19.891Z,26.30
2019-04-03T20:25:51.332Z,17.55
2019-04-03T20:28:24.188Z,18.85
2019-04-03T20:30:55.453Z,31.23
2019-04-03T20:33:27.428Z,47.43
2019-04-03T20:35:58.979Z,51.88
2019-04-03T20:38:30.902Z,61.92
2019-04-03T20:41:03.838Z,65.20
2019-04-03T20:43:35.486Z,62.13
2019-04-03T20:46:07.236Z,67.82
2019-04-03T20:48:38.789Z,61.43
2019-04-03T20:51:10.659Z,56.40
2019-04-03T20:53:42.418Z,77.58
2019-04-03T20:56:13.984Z,78.67
2019-04-03T20:58:55.272Z,70.60
2019-04-03T21:01:18.819Z,70.62
2019-04-03T21:03:50.409Z,66.30
2019-04-03T21:06:22.418Z,69.35
2019-04-03T21:08:53.873Z,63.50
2019-04-03T21:11:25.446Z,63.65
2019-04-03T21:13:57.636Z,65.20
2019-04-03T21:16:33.479Z,53.02
2019-04-03T21:19:02.540Z,46.02
2019-04-03T21:21:34.236Z,41.63
2019-04-03T21:24:05.726Z,42.98
2019-04-03T21:26:38.285Z,43.02
2019-04-03T21:29:11.817Z,33.70
2019-04-03T21:31:43.865Z,33.33
2019-04-03T21:34:15.861Z,34.50
2019-04-03T21:36:47.372Z,35.17
2019-04-03T21:39:19.120Z,28.27
2019-04-03T21:41:50.509Z,22.07
2019-04-03T21:44:22.066Z,28.17
2019-04-03T21:46:53.497Z,21.65
2019-04-03T21:49:25.697Z,21.12
2019-04-03T21:51:57.203Z,15.87
2019-04-03T21:54:29.811Z,18.92
2019-04-03T21:57:01.072Z,15.28
2019-04-03T21:59:32.634Z,23.10
2019-04-03T22:02:04.033Z,21.60
2019-04-03T22:37:28.255Z,19.40
2019-04-03T22:39:59.829Z,19.85
2019-04-03T22:42:31.609Z,18.17
2019-04-03T22:45:02.792Z,13.97
2019-04-03T22:47:34.366Z,15.38
2019-04-03T22:50:06.388Z,16.10
2019-04-03T22:52:39.653Z,18.60
2019-04-03T22:55:10.785Z,20.57
2019-04-03T22:57:42.468Z,12.98
2019-04-03T23:00:13.810Z,16.12
2019-04-03T23:02:45.421Z,16.75
2019-04-03T23:05:17.672Z,15.53
2019-04-03T23:07:51.670Z,15.75
2019-04-03T23:10:22.810Z,16.32
2019-04-03T23:12:54.194Z,17.42
2019-04-03T23:15:25.716Z,13.68
2019-04-03T23:17:57.305Z,16.55
2019-04-03T23:20:28.750Z,28.70
2019-04-03T23:23:00.098Z,19.45
2019-04-03T23:25:31.547Z,14.85
2019-04-03T23:28:03.607Z,16.67
2019-04-03T23:30:36.203Z,16.25
2019-04-03T23:33:07.415Z,12.90
2019-04-03T23:35:39.400Z,16.75
2019-04-03T23:38:10.889Z,16.48
2019-04-03T23:40:42.629Z,16.73
2019-04-03T23:43:14.011Z,18.85
2019-04-03T23:45:45.618Z,23.98
2019-04-03T23:48:18.483Z,22.82
2019-04-03T23:50:52.424Z,23.18
2019-04-03T23:53:23.342Z,19.48
2019-04-03T23:55:54.789Z,22.62
2019-04-03T23:58:26.140Z,21.05
